Columbus, Ohio
Traffic Map
Current Weather Conditions
Columbus, Ohio
Overcast
Overcast

Feels Like: -2°
Wind Chill: -2° Ceiling: 2500
Heat Index: Visibility: 10mi
Dew Point: Wind: 15mph
Humidity: 79% Direction: 290° (WNW)
Pressure: 30.16in Gusts: 0mph
Raw Report DataKCMH 021951Z 29013KT 10SM BKN025 OVC033 03/00 A3016 RMK AO2 SLP217 T00330000
Traffic Incident Summary
Active as of:
Severity:
Category:
InformationThere was an issue retrieving the traffic information for this location. Please try a different location or try again shortly.
Advertisements
Track Severe Weather on mobile